Time;durP1;ratioP1;P1;durP2;ratioP2;P2;SDS_P1;SDS_P2;PMS_P1;PMS_P2;Temp;Humidity;BMP_temperature;BMP_pressure;BME280_temperature;BME280_humidity;BME280_pressure;Samples;Min_cycle;Max_cycle;Signal;HPM_P1;HPM_P2
2023/04/01 14:13:51;;;;;;;96.70;61.60;;;;;;;20.94;41.78;101054.34;5110989;27;20144;-56
2023/04/01 14:16:45;;;;;;;80.47;52.50;;;;;;;21.73;39.56;101053.78;5105920;28;20051;-56
2023/04/01 14:19:40;;;;;;;70.75;43.80;;;;;;;22.05;38.69;101050.13;5108223;28;20081;-56
2023/04/01 14:22:46;;;;;;;55.08;35.97;;;;;;;22.20;37.66;101060.03;5106183;28;20550;-55
2023/04/01 14:25:28;;;;;;;59.75;37.05;;;;;;;22.05;37.20;101066.69;5091277;28;20485;-55
2023/04/01 14:27:56;;;;;;;68.65;42.75;;;;;;;22.13;37.28;101065.13;5110679;28;20131;-56
2023/04/01 14:30:52;;;;;;;61.50;41.25;;;;;;;22.37;36.39;101065.63;5110363;28;20020;-55
2023/04/01 14:33:36;;;;;;;63.42;35.97;;;;;;;22.28;35.67;101069.81;5105145;28;20032;-56
2023/04/01 14:36:42;;;;;;;75.18;47.55;;;;;;;22.35;36.33;101067.31;5109638;28;20143;-56
2023/04/01 14:39:30;;;;;;;72.13;42.10;;;;;;;22.08;36.33;101079.84;5099052;28;20110;-56
2023/04/01 14:42:18;;;;;;;67.45;43.03;;;;;;;22.05;35.97;101074.53;5106351;28;20040;-56
2023/04/01 14:44:47;;;;;;;62.47;40.17;;;;;;;22.01;35.78;101084.00;5103534;28;20039;-56
2023/04/01 14:47:40;;;;;;;81.50;52.83;;;;;;;22.42;37.13;101082.31;5110258;28;20477;-57
2023/04/01 14:50:16;;;;;;;68.97;38.05;;;;;;;22.30;35.63;101085.50;5100846;28;20127;-56
2023/04/01 14:52:59;;;;;;;73.65;45.75;;;;;;;22.16;36.42;101080.00;5110079;28;20032;-56
2023/04/01 14:55:50;;;;;;;61.63;38.95;;;;;;;22.19;36.14;101093.09;5108973;28;20495;-56
2023/04/01 14:58:21;;;;;;;69.82;45.45;;;;;;;22.23;37.04;101097.56;5100997;28;20036;-56
2023/04/01 15:00:51;;;;;;;80.07;49.05;;;;;;;22.42;36.73;101093.66;5109711;28;20066;-57
2023/04/01 15:03:41;;;;;;;86.03;53.05;;;;;;;22.42;37.13;101091.03;5108940;28;20024;-56
2023/04/01 15:06:29;;;;;;;74.50;44.45;;;;;;;22.46;36.36;101094.63;5101020;28;20032;-56
2023/04/01 15:09:02;;;;;;;59.67;39.67;;;;;;;21.99;36.25;101100.50;5106407;28;20465;-56
2023/04/01 15:11:30;;;;;;;60.08;38.30;;;;;;;21.92;36.21;101102.09;5108234;28;20028;-56
2023/04/01 15:14:02;;;;;;;77.35;44.65;;;;;;;21.89;37.02;101095.91;5109266;28;20031;-56
2023/04/01 15:17:09;;;;;;;72.10;48.10;;;;;;;22.08;36.89;101107.66;5109729;28;20503;-56
2023/04/01 15:19:41;;;;;;;70.55;42.88;;;;;;;21.79;36.51;101113.09;5100329;28;20027;-56
2023/04/01 15:22:25;;;;;;;79.13;51.58;;;;;;;22.01;37.08;101107.50;5109552;28;20036;-56
2023/04/01 15:25:31;;;;;;;84.18;53.20;;;;;;;22.07;37.10;101112.03;5096626;28;20024;-56
2023/04/01 15:28:28;;;;;;;67.50;39.40;;;;;;;21.78;36.98;101117.41;5094631;28;20039;-57
2023/04/01 15:31:16;;;;;;;66.82;39.15;;;;;;;21.61;36.73;101119.63;5091971;28;20036;-56
2023/04/01 15:33:53;;;;;;;85.30;51.78;;;;;;;21.80;37.12;101122.69;5091986;28;20043;-56
2023/04/01 15:36:31;;;;;;;64.25;39.60;;;;;;;21.58;37.06;101114.28;5096030;28;20032;-56
2023/04/01 15:39:06;;;;;;;83.05;49.53;;;;;;;21.69;37.46;101123.28;5095604;28;20028;-56
2023/04/01 15:42:02;;;;;;;57.78;36.75;;;;;;;21.48;36.95;101123.59;5095774;28;20115;-56
2023/04/01 15:44:48;;;;;;;69.82;41.33;;;;;;;21.44;37.27;101113.91;5091463;28;20032;-57
2023/04/01 15:47:41;;;;;;;65.20;39.85;;;;;;;21.61;36.62;101123.94;5095488;28;20059;-56
2023/04/01 15:50:28;;;;;;;78.97;49.55;;;;;;;21.66;37.95;101130.16;5071793;28;20047;-56
2023/04/01 15:53:35;;;;;;;72.20;44.78;;;;;;;21.60;37.49;101133.50;5088152;28;20401;-57
2023/04/01 15:56:23;;;;;;;80.68;48.30;;;;;;;21.54;37.63;101144.66;5090341;28;20477;-56
2023/04/01 15:59:02;;;;;;;63.28;38.72;;;;;;;21.39;37.68;101142.50;5089619;28;20465;-56
2023/04/01 16:01:53;;;;;;;70.63;41.40;;;;;;;21.21;38.01;101147.22;5093549;28;20028;-56
2023/04/01 16:04:58;;;;;;;67.07;38.72;;;;;;;21.08;37.91;101144.28;5095240;28;20035;-55
2023/04/01 16:08:04;;;;;;;67.75;38.92;;;;;;;21.04;38.97;101155.47;5085729;28;20115;-56
2023/04/01 16:10:43;;;;;;;78.15;47.85;;;;;;;21.42;39.01;101152.16;5090868;28;20039;-55
2023/04/01 16:13:13;;;;;;;79.38;50.72;;;;;;;21.50;38.43;101152.38;5094285;28;20509;-56
2023/04/01 16:16:03;;;;;;;70.88;41.28;;;;;;;21.38;38.16;101164.22;5095455;28;20067;-55
2023/04/01 16:18:55;;;;;;;76.05;45.47;;;;;;;21.23;38.07;101171.63;5090745;28;20093;-55
2023/04/01 16:21:48;;;;;;;73.03;42.55;;;;;;;21.33;38.41;101165.84;5094054;28;20033;-56
2023/04/01 16:24:24;;;;;;;72.68;45.50;;;;;;;21.35;38.57;101181.53;5086751;28;20374;-56
2023/04/01 16:27:12;;;;;;;71.15;44.17;;;;;;;21.60;38.25;101177.91;5094620;28;20028;-55
2023/04/01 16:29:48;;;;;;;61.83;38.53;;;;;;;21.49;38.46;101181.91;5088417;28;20036;-56
2023/04/01 16:32:40;;;;;;;86.28;54.97;;;;;;;21.66;39.13;101172.84;5094961;28;20066;-55
2023/04/01 16:35:46;;;;;;;76.97;47.00;;;;;;;21.64;38.94;101194.50;5089310;28;20040;-58
2023/04/01 16:38:23;;;;;;;85.15;52.88;;;;;;;21.61;38.56;101197.03;5090697;28;20040;-54
2023/04/01 16:41:00;;;;;;;63.33;40.47;;;;;;;21.24;38.91;101199.50;5094366;28;20085;-56
2023/04/01 16:43:38;;;;;;;79.13;49.35;;;;;;;21.46;38.70;101208.81;5094194;28;20031;-55
2023/04/01 16:46:32;;;;;;;82.53;52.35;;;;;;;21.65;39.16;101212.84;5094084;28;20500;-55
2023/04/01 16:49:21;;;;;;;93.68;58.33;;;;;;;21.68;39.68;101209.41;5093270;28;20032;-55
2023/04/01 16:51:55;;;;;;;100.05;66.57;;;;;;;21.87;39.94;101208.16;5090550;28;20040;-57
2023/04/01 16:54:24;;;;;;;104.50;69.53;;;;;;;22.07;39.93;101215.63;5093990;28;20031;-56
2023/04/01 16:57:11;;;;;;;124.13;83.22;;;;;;;22.38;39.51;101221.59;5094292;28;20023;-56
2023/04/01 16:59:52;;;;;;;133.98;88.80;;;;;;;22.47;40.06;101227.09;5094115;28;20031;-56
2023/04/01 17:02:43;;;;;;;141.80;96.90;;;;;;;22.51;40.08;101238.50;5093013;28;20035;-57
2023/04/01 17:05:14;;;;;;;159.93;105.82;;;;;;;22.73;40.26;101234.63;5093998;28;20035;-58
2023/04/01 17:07:50;;;;;;;154.38;105.40;;;;;;;22.82;40.00;101247.94;5092701;28;20431;-54
2023/04/01 17:10:28;;;;;;;157.68;110.85;;;;;;;22.95;40.13;101253.44;5092236;28;20073;-56
2023/04/01 17:13:15;;;;;;;167.93;117.38;;;;;;;22.90;40.21;101248.13;5093590;28;20083;-55
2023/04/01 17:17:25;;;;;;;182.35;125.80;;;;;;;22.94;40.53;101255.16;5114964;27;20156;-56
2023/04/01 17:20:17;;;;;;;195.82;131.43;;;;;;;22.94;40.77;101256.91;5104348;28;20051;-56
2023/04/01 17:22:50;;;;;;;195.57;136.73;;;;;;;22.97;40.76;101257.84;5102253;28;20047;-56
2023/04/01 17:25:35;;;;;;;206.32;140.75;;;;;;;23.08;40.82;101263.31;5105355;28;20036;-57
2023/04/01 17:28:22;;;;;;;214.70;148.05;;;;;;;23.10;41.12;101263.34;5102091;28;20026;-55
2023/04/01 17:31:28;;;;;;;248.80;171.82;;;;;;;23.16;40.83;101267.00;5101884;28;20036;-54
2023/04/01 17:34:14;;;;;;;265.58;187.43;;;;;;;23.22;41.45;101271.50;5093256;28;20109;-56
2023/04/01 17:37:00;;;;;;;270.00;192.52;;;;;;;23.27;41.12;101268.97;5108307;28;20059;-58
2023/04/01 17:39:37;;;;;;;271.60;197.57;;;;;;;23.31;41.29;101276.91;5105728;28;20028;-56
2023/04/01 17:42:15;;;;;;;280.48;195.98;;;;;;;23.37;41.34;101286.63;5109133;28;20028;-56
2023/04/01 17:44:55;;;;;;;279.77;196.57;;;;;;;23.37;41.28;101286.63;5108225;28;20540;-56
2023/04/01 17:47:31;;;;;;;275.17;197.50;;;;;;;23.45;41.51;101290.31;5101524;28;20028;-54
2023/04/01 17:50:23;;;;;;;275.77;193.82;;;;;;;23.45;41.29;101292.00;5100392;28;20027;-57
2023/04/01 17:53:15;;;;;;;280.40;189.90;;;;;;;23.48;41.45;101302.56;5100424;28;20039;-56
2023/04/01 17:56:00;;;;;;;270.45;199.88;;;;;;;23.38;41.77;101306.72;5095262;28;20059;-57
2023/04/01 17:58:30;;;;;;;292.48;203.35;;;;;;;23.44;41.91;101299.00;5104057;28;20028;-56
2023/04/01 18:01:27;;;;;;;305.00;216.23;;;;;;;23.53;41.71;101303.53;5107417;28;20115;-55
2023/04/01 18:03:56;;;;;;;285.52;200.32;;;;;;;23.49;41.99;101306.94;5100933;28;20028;-57
2023/04/01 18:06:43;;;;;;;293.58;209.27;;;;;;;23.50;41.83;101314.81;5104715;28;20036;-57
2023/04/01 18:09:18;;;;;;;298.55;210.30;;;;;;;23.53;42.00;101314.03;5101585;28;20042;-57
2023/04/01 18:12:05;;;;;;;324.10;218.63;;;;;;;23.57;41.77;101320.19;5108426;28;20370;-57
2023/04/01 18:14:53;;;;;;;324.67;221.93;;;;;;;23.64;41.97;101327.34;5106117;28;20023;-57
2023/04/01 18:17:25;;;;;;;329.00;226.88;;;;;;;23.70;41.95;101331.81;5105526;28;20040;-57
2023/04/01 18:19:56;;;;;;;339.02;232.38;;;;;;;23.69;41.94;101330.91;5102926;28;20066;-56
2023/04/01 18:22:44;;;;;;;332.17;226.73;;;;;;;23.75;41.98;101336.28;5108079;28;20039;-57
2023/04/01 18:25:18;;;;;;;327.95;234.50;;;;;;;23.76;41.88;101342.38;5098483;28;20123;-57
2023/04/01 18:27:51;;;;;;;330.48;231.85;;;;;;;23.75;42.36;101356.34;5093529;28;20473;-57
2023/04/01 18:30:29;;;;;;;334.52;234.35;;;;;;;23.79;42.01;101369.56;5091195;28;20032;-57
2023/04/01 18:33:30;;;;;;;330.52;227.55;;;;;;;23.78;41.85;101377.38;5089798;28;20338;-58
2023/04/01 18:35:58;;;;;;;331.38;232.52;;;;;;;23.78;42.22;101379.97;5095327;28;20039;-57
2023/04/01 18:38:30;;;;;;;327.25;227.63;;;;;;;23.76;42.63;101386.91;5095813;28;20016;-57
2023/04/01 18:41:21;;;;;;;327.48;227.80;;;;;;;23.75;42.54;101393.91;5094366;28;20039;-57
2023/04/01 18:44:26;;;;;;;325.77;228.68;;;;;;;23.81;42.58;101394.06;5085175;28;20074;-57
2023/04/01 18:47:16;;;;;;;334.10;224.63;;;;;;;23.78;42.22;101388.75;5093743;28;20036;-57
2023/04/01 18:50:03;;;;;;;325.88;224.90;;;;;;;23.77;42.30;101400.06;5090102;28;20028;-57
2023/04/01 18:52:37;;;;;;;332.00;230.25;;;;;;;23.79;42.56;101413.19;5091612;28;20032;-56
2023/04/01 18:55:05;;;;;;;329.70;229.50;;;;;;;23.80;42.19;101409.72;5093483;28;20024;-57
2023/04/01 18:57:48;;;;;;;321.98;224.68;;;;;;;23.81;42.27;101414.09;5095146;28;20032;-57
2023/04/01 19:00:45;;;;;;;325.50;226.43;;;;;;;23.84;42.07;101414.19;5094850;28;20028;-57
2023/04/01 19:03:26;;;;;;;321.00;227.07;;;;;;;23.82;42.17;101414.16;5090511;28;20040;-57
2023/04/01 19:05:55;;;;;;;316.23;221.13;;;;;;;23.88;42.24;101428.22;5093905;28;20055;-56
2023/04/01 19:08:32;;;;;;;327.52;229.60;;;;;;;23.86;41.90;101436.06;5094845;28;20035;-57
2023/04/01 19:11:38;;;;;;;328.73;237.02;;;;;;;23.66;42.34;101404.22;5095180;28;20144;-57
2023/04/01 19:14:30;;;;;;;318.80;223.95;;;;;;;23.90;41.87;101442.25;5090072;28;20032;-57
2023/04/01 19:17:18;;;;;;;318.20;231.45;;;;;;;23.83;41.93;101434.25;5089326;28;20039;-57
2023/04/01 19:19:56;;;;;;;328.88;238.00;;;;;;;23.79;42.41;101455.09;5093749;28;20479;-57
2023/04/01 19:22:32;;;;;;;327.02;239.07;;;;;;;23.76;42.28;101455.03;5076301;28;20065;-56
2023/04/01 19:25:18;;;;;;;320.85;231.20;;;;;;;23.81;42.28;101450.78;5093519;28;20024;-57
2023/04/01 19:27:51;;;;;;;328.35;239.52;;;;;;;23.83;42.16;101454.31;5088408;28;20043;-57
2023/04/01 19:30:22;;;;;;;335.10;243.88;;;;;;;23.86;42.13;101453.50;5094736;28;20031;-57
2023/04/01 19:33:27;;;;;;;336.25;245.43;;;;;;;23.85;42.48;101456.97;5094421;28;20024;-58
2023/04/01 19:36:02;;;;;;;329.67;235.25;;;;;;;23.89;41.94;101453.56;5082473;28;20043;-56
2023/04/01 19:38:41;;;;;;;330.13;242.07;;;;;;;23.86;42.29;101469.22;5093839;28;20032;-57
2023/04/01 19:41:20;;;;;;;328.08;238.65;;;;;;;23.85;42.05;101472.69;5076440;28;20024;-57
2023/04/01 19:44:08;;;;;;;348.10;246.48;;;;;;;23.85;42.43;101478.84;5094558;28;20027;-57
2023/04/01 19:46:37;;;;;;;327.27;238.25;;;;;;;23.87;42.04;101477.13;5087530;28;20154;-57
2023/04/01 19:49:08;;;;;;;344.88;244.68;;;;;;;23.87;42.45;101481.47;5094232;28;20477;-56
2023/04/01 19:51:41;;;;;;;325.73;240.77;;;;;;;23.87;42.37;101487.63;5094236;28;20103;-57
2023/04/01 19:54:37;;;;;;;341.10;240.48;;;;;;;23.85;42.53;101483.16;5094435;28;20080;-56
2023/04/01 19:57:04;;;;;;;;;;;;;;;24.04;41.98;101492.38;5090865;28;20078;-57
2023/04/01 19:59:57;;;;;;;343.17;250.73;;;;;;;23.95;42.17;101491.25;5093537;28;19912;-57
2023/04/01 20:02:50;;;;;;;336.52;245.43;;;;;;;23.94;42.12;101494.75;5089865;28;20047;-57
2023/04/01 20:05:30;;;;;;;326.15;239.48;;;;;;;23.92;42.40;101509.53;5092901;28;20089;-57
2023/04/01 20:08:20;;;;;;;333.40;244.32;;;;;;;23.94;42.30;101514.84;5092082;28;20031;-57
2023/04/01 20:10:52;;;;;;;325.90;237.23;;;;;;;23.91;42.38;101512.13;5073898;28;20031;-57
2023/04/01 20:13:23;;;;;;;327.50;238.48;;;;;;;23.93;42.37;101513.06;5093992;28;20035;-57
2023/04/01 20:16:10;;;;;;;325.38;240.35;;;;;;;23.95;42.56;101511.38;5093336;28;20043;-57
2023/04/01 20:18:55;;;;;;;335.80;245.88;;;;;;;23.97;42.41;101514.94;5083548;28;20498;-57
2023/04/01 20:21:43;;;;;;;337.33;242.15;;;;;;;23.99;42.19;101520.19;5089966;28;20452;-57
2023/04/01 20:24:14;;;;;;;336.98;245.25;;;;;;;23.94;42.40;101533.16;5088679;28;20036;-57
2023/04/01 20:26:47;;;;;;;339.00;249.43;;;;;;;23.95;42.40;101540.19;5092260;28;20103;-57
2023/04/01 20:29:34;;;;;;;341.40;248.43;;;;;;;23.98;42.22;101545.53;5088894;28;20028;-57
2023/04/01 20:32:19;;;;;;;322.83;239.07;;;;;;;23.99;41.98;101560.41;5072929;28;20035;-57
2023/04/01 20:35:07;;;;;;;331.77;236.90;;;;;;;24.01;42.07;101558.69;5084989;28;20032;-57
2023/04/01 20:37:39;;;;;;;327.77;242.82;;;;;;;24.00;42.09;101556.03;5090157;28;20401;-57
2023/04/01 20:40:30;;;;;;;344.10;248.95;;;;;;;23.96;41.95;101576.03;5091482;28;20023;-57
2023/04/01 20:43:17;;;;;;;345.92;245.20;;;;;;;23.93;42.34;101583.81;5078888;28;20068;-56
2023/04/01 20:45:52;;;;;;;338.80;244.10;;;;;;;23.99;42.10;101591.84;5092375;28;20059;-56
2023/04/01 20:48:47;;;;;;;342.52;249.55;;;;;;;23.97;42.37;101588.31;5087093;28;20028;-57
2023/04/01 20:51:20;;;;;;;353.15;254.93;;;;;;;23.76;42.47;101557.19;5085719;28;20125;-57
2023/04/01 20:53:59;;;;;;;353.75;259.95;;;;;;;23.94;42.37;101593.44;5083388;28;20383;-57
2023/04/01 20:56:49;;;;;;;345.60;256.52;;;;;;;24.02;42.21;101605.00;5086774;28;20111;-56
2023/04/01 20:59:20;;;;;;;340.42;249.45;;;;;;;24.03;41.92;101612.03;5077101;28;20374;-57
2023/04/01 21:01:52;;;;;;;352.88;261.42;;;;;;;24.04;42.20;101615.53;5087850;28;20024;-57
2023/04/01 21:04:28;;;;;;;360.70;257.80;;;;;;;23.99;42.19;101618.06;5092025;28;20024;-56
2023/04/01 21:07:04;;;;;;;357.10;259.08;;;;;;;24.01;42.09;101608.47;5078962;28;20035;-57
2023/04/01 21:10:06;;;;;;;357.70;261.83;;;;;;;23.99;42.43;101630.28;5089098;28;20124;-56
2023/04/01 21:12:52;;;;;;;356.20;260.05;;;;;;;23.97;42.10;101636.34;5083941;28;20047;-57
